Excellence — KTDP — position and weather

sailwx.info

Track history (hours):
 
Tides and Currents Weather Stations Pressure Air Temp Water Temp Dewpoint Dewpoint Depression Visibility Wind Speed Wind Dir Waves Ship Positions

Excellence

Owner: AJVS, INC, Seattle, WA. More information available from US FCC via Universal Licensing System and Coast Guard Vessel Documentation Center.

Last reported at 2016-Jul-27 22:33 UTC. Time now 2016-Jul-27 23:02 UTC.
Position N 48°21' W 124°24'.

Length 112 m; draft 6 m.

Type: Other ship. MMSI: 338162000.

Date/timePositionNaut miles runAvg speedWind from/ knotsBaromVisibWave heightAir tempDewpointWater temp
2016-Jul-27 22:33N 48°21' W 124°24'9 9.0
2016-Jul-27 21:33N 48°25' W 124°36'8 7.9
2016-Jul-27 20:32N 48°27' W 124°48'8 7.9
2016-Jul-27 19:33N 48°27' W 124°59'10 9.9
2016-Jul-27 18:33N 48°18' W 125°07'10 9.8
2016-Jul-27 17:31N 48°09' W 125°13'9 9.5
2016-Jul-27 16:33N 48°01' W 125°19'1310.1
2016-Jul-27 15:18N 47°48' W 125°18'910.1
2016-Jul-27 14:24N 47°39' W 125°18'910.0
2016-Jul-27 13:32N 47°30' W 125°17'10 9.7
2016-Jul-27 12:33N 47°21' W 125°17'1410.1
2016-Jul-27 11:09N 47°07' W 125°17'610.3
2016-Jul-27 10:33N 47°00' W 125°16'1010.3
2016-Jul-27 09:33N 46°50' W 125°16'1010.2
2016-Jul-27 08:33N 46°40' W 125°16'1010.1
2016-Jul-27 07:33N 46°30' W 125°16'1010.2
2016-Jul-27 06:33N 46°20' W 125°16'10 9.8
2016-Jul-27 05:33N 46°10' W 125°16'10 9.5
2016-Jul-27 04:33N 46°00' W 125°18'10 9.6
2016-Jul-27 03:33N 45°51' W 125°17'10 9.9
2016-Jul-27 02:33N 45°41' W 125°17'1010.2
2016-Jul-27 01:33N 45°31' W 125°17'1010.3
2016-Jul-27 00:33N 45°20' W 125°17'1010.3
2016-Jul-26 23:33N 45°10' W 125°16'1010.4
2016-Jul-26 22:33N 44°60' W 125°16'1010.4
2016-Jul-26 21:33N 44°49' W 125°16'1010.4
2016-Jul-26 20:33N 44°39' W 125°16'1010.4
2016-Jul-26 19:33N 44°28' W 125°16'1010.1
2016-Jul-26 18:33N 44°18' W 125°16'1010.1
2016-Jul-26 17:33N 44°08' W 125°15'10 9.9
2016-Jul-26 16:33N 43°58' W 125°15'10 9.6
2016-Jul-26 15:33N 43°49' W 125°15'9 9.4
2016-Jul-26 14:33N 43°39' W 125°15'10 9.6
2016-Jul-26 13:32N 43°30' W 125°15'9 9.5
2016-Jul-26 12:33N 43°20' W 125°15'10 9.4
2016-Jul-26 11:31N 43°11' W 125°15'9 9.4
2016-Jul-26 10:33N 43°01' W 125°15'11 9.5
2016-Jul-26 09:26N 42°51' W 125°15'11 9.5
2016-Jul-26 08:13N 42°39' W 125°14'7 9.9
2016-Jul-26 07:33N 42°33' W 125°12'3 3.0
2016-Jul-26 06:30N 42°30' W 125°14'15 7.6
2016-Jul-26 04:29N 42°15' W 125°12'1 1.0
2016-Jul-26 03:08N 42°14' W 125°14'3 0.1
2016-Jul-25 07:21N 42°16' W 125°15'4 4.9
2016-Jul-25 06:27N 42°21' W 125°15'9 4.9
2016-Jul-25 04:30N 42°30' W 125°15'5 4.3
2016-Jul-25 03:25N 42°26' W 125°15'5 3.9
2016-Jul-25 02:14N 42°21' W 125°16'2 2.1
2016-Jul-25 01:28N 42°23' W 125°16'6 6.8
2016-Jul-25 00:33N 42°18' W 125°11'  
Track history (hours):
 
Tides and Currents Weather Stations Pressure Air Temp Water Temp Dewpoint Dewpoint Depression Visibility Wind Speed Wind Dir Waves Ship Positions

Excellence

Owner: AJVS, INC, Seattle, WA. More information available from US FCC via Universal Licensing System and Coast Guard Vessel Documentation Center.

Last reported at 2016-Jul-27 22:33 UTC. Time now 2016-Jul-27 23:02 UTC.
Position N 48°21' W 124°24'.

Length 112 m; draft 6 m.

Type: Other ship. MMSI: 338162000.

Date/timePositionNaut miles runAvg speedWind from/ knotsBaromVisibWave heightAir tempDewpointWater temp
2016-Jul-27 22:33N 48°21' W 124°24'9 9.0
2016-Jul-27 21:33N 48°25' W 124°36'8 7.9
2016-Jul-27 20:32N 48°27' W 124°48'8 7.9
2016-Jul-27 19:33N 48°27' W 124°59'10 9.9
2016-Jul-27 18:33N 48°18' W 125°07'10 9.8
2016-Jul-27 17:31N 48°09' W 125°13'9 9.5
2016-Jul-27 16:33N 48°01' W 125°19'1310.1
2016-Jul-27 15:18N 47°48' W 125°18'910.1
2016-Jul-27 14:24N 47°39' W 125°18'910.0
2016-Jul-27 13:32N 47°30' W 125°17'10 9.7
2016-Jul-27 12:33N 47°21' W 125°17'1410.1
2016-Jul-27 11:09N 47°07' W 125°17'610.3
2016-Jul-27 10:33N 47°00' W 125°16'1010.3
2016-Jul-27 09:33N 46°50' W 125°16'1010.2
2016-Jul-27 08:33N 46°40' W 125°16'1010.1
2016-Jul-27 07:33N 46°30' W 125°16'1010.2
2016-Jul-27 06:33N 46°20' W 125°16'10 9.8
2016-Jul-27 05:33N 46°10' W 125°16'10 9.5
2016-Jul-27 04:33N 46°00' W 125°18'10 9.6
2016-Jul-27 03:33N 45°51' W 125°17'10 9.9
2016-Jul-27 02:33N 45°41' W 125°17'1010.2
2016-Jul-27 01:33N 45°31' W 125°17'1010.3
2016-Jul-27 00:33N 45°20' W 125°17'1010.3
2016-Jul-26 23:33N 45°10' W 125°16'1010.4
2016-Jul-26 22:33N 44°60' W 125°16'1010.4
2016-Jul-26 21:33N 44°49' W 125°16'1010.4
2016-Jul-26 20:33N 44°39' W 125°16'1010.4
2016-Jul-26 19:33N 44°28' W 125°16'1010.1
2016-Jul-26 18:33N 44°18' W 125°16'1010.1
2016-Jul-26 17:33N 44°08' W 125°15'10 9.9
2016-Jul-26 16:33N 43°58' W 125°15'10 9.6
2016-Jul-26 15:33N 43°49' W 125°15'9 9.4
2016-Jul-26 14:33N 43°39' W 125°15'10 9.6
2016-Jul-26 13:32N 43°30' W 125°15'9 9.5
2016-Jul-26 12:33N 43°20' W 125°15'10 9.4
2016-Jul-26 11:31N 43°11' W 125°15'9 9.4
2016-Jul-26 10:33N 43°01' W 125°15'11 9.5
2016-Jul-26 09:26N 42°51' W 125°15'11 9.5
2016-Jul-26 08:13N 42°39' W 125°14'7 9.9
2016-Jul-26 07:33N 42°33' W 125°12'3 3.0
2016-Jul-26 06:30N 42°30' W 125°14'15 7.6
2016-Jul-26 04:29N 42°15' W 125°12'1 1.0
2016-Jul-26 03:08N 42°14' W 125°14'3 0.1
2016-Jul-25 07:21N 42°16' W 125°15'4 4.9
2016-Jul-25 06:27N 42°21' W 125°15'9 4.9
2016-Jul-25 04:30N 42°30' W 125°15'5 4.3
2016-Jul-25 03:25N 42°26' W 125°15'5 3.9
2016-Jul-25 02:14N 42°21' W 125°16'2 2.1
2016-Jul-25 01:28N 42°23' W 125°16'6 6.8
2016-Jul-25 00:33N 42°18' W 125°11'  

Dump ship's entire track history